sensor_id;sensor_type;location;lat;lon;timestamp;temperature;humidity
23053;DHT22;11694;-36.632;-64.318;2022-10-16T00:01:19;16.30;99.90
23053;DHT22;11694;-36.632;-64.318;2022-10-16T00:03:48;16.40;99.90
23053;DHT22;11694;-36.632;-64.318;2022-10-16T00:06:17;16.40;99.90
23053;DHT22;11694;-36.632;-64.318;2022-10-16T00:08:44;16.40;99.90
23053;DHT22;11694;-36.632;-64.318;2022-10-16T00:11:32;16.40;99.90
23053;DHT22;11694;-36.632;-64.318;2022-10-16T00:14:01;16.40;99.90
23053;DHT22;11694;-36.632;-64.318;2022-10-16T00:16:28;16.30;99.90
23053;DHT22;11694;-36.632;-64.318;2022-10-16T00:18:56;16.30;99.90
23053;DHT22;11694;-36.632;-64.318;2022-10-16T00:21:26;16.20;99.90
23053;DHT22;11694;-36.632;-64.318;2022-10-16T00:23:56;16.30;99.90
23053;DHT22;11694;-36.632;-64.318;2022-10-16T00:26:23;16.30;99.90
23053;DHT22;11694;-36.632;-64.318;2022-10-16T00:28:51;16.30;99.90
23053;DHT22;11694;-36.632;-64.318;2022-10-16T00:31:21;16.20;99.90
23053;DHT22;11694;-36.632;-64.318;2022-10-16T00:33:49;16.10;99.90
23053;DHT22;11694;-36.632;-64.318;2022-10-16T00:36:19;16.10;99.90
23053;DHT22;11694;-36.632;-64.318;2022-10-16T00:38:47;16.10;99.90
23053;DHT22;11694;-36.632;-64.318;2022-10-16T00:41:17;16.10;99.90
23053;DHT22;11694;-36.632;-64.318;2022-10-16T00:43:59;16.10;99.90
23053;DHT22;11694;-36.632;-64.318;2022-10-16T00:46:46;16.00;1.00
23053;DHT22;11694;-36.632;-64.318;2022-10-16T00:49:15;15.90;1.00
23053;DHT22;11694;-36.632;-64.318;2022-10-16T00:51:48;15.90;1.00
23053;DHT22;11694;-36.632;-64.318;2022-10-16T00:54:30;15.90;1.00
23053;DHT22;11694;-36.632;-64.318;2022-10-16T00:57:01;15.90;1.00
23053;DHT22;11694;-36.632;-64.318;2022-10-16T00:59:35;16.00;1.00
23053;DHT22;11694;-36.632;-64.318;2022-10-16T01:02:05;15.90;1.00
23053;DHT22;11694;-36.632;-64.318;2022-10-16T01:04:43;15.90;1.00
23053;DHT22;11694;-36.632;-64.318;2022-10-16T01:13:09;15.80;1.00
23053;DHT22;11694;-36.632;-64.318;2022-10-16T01:20:59;15.60;1.00
23053;DHT22;11694;-36.632;-64.318;2022-10-16T01:26:28;15.60;1.00
23053;DHT22;11694;-36.632;-64.318;2022-10-16T01:31:34;15.50;1.00
23053;DHT22;11694;-36.632;-64.318;2022-10-16T01:34:14;15.50;1.00
23053;DHT22;11694;-36.632;-64.318;2022-10-16T01:36:49;15.40;1.00
23053;DHT22;11694;-36.632;-64.318;2022-10-16T01:39:22;15.30;1.00
23053;DHT22;11694;-36.632;-64.318;2022-10-16T01:41:59;15.20;1.00
23053;DHT22;11694;-36.632;-64.318;2022-10-16T01:44:31;15.10;1.00
23053;DHT22;11694;-36.632;-64.318;2022-10-16T01:46:59;15.10;1.00
23053;DHT22;11694;-36.632;-64.318;2022-10-16T01:49:31;15.10;1.00
23053;DHT22;11694;-36.632;-64.318;2022-10-16T01:52:02;15.00;1.00
23053;DHT22;11694;-36.632;-64.318;2022-10-16T01:54:33;15.00;1.00
23053;DHT22;11694;-36.632;-64.318;2022-10-16T01:57:04;14.80;1.00
23053;DHT22;11694;-36.632;-64.318;2022-10-16T01:59:37;14.60;1.00
23053;DHT22;11694;-36.632;-64.318;2022-10-16T02:02:07;14.50;1.00
23053;DHT22;11694;-36.632;-64.318;2022-10-16T02:04:45;14.40;1.00
23053;DHT22;11694;-36.632;-64.318;2022-10-16T02:07:13;14.30;1.00
23053;DHT22;11694;-36.632;-64.318;2022-10-16T02:09:41;14.10;8.30
23053;DHT22;11694;-36.632;-64.318;2022-10-16T02:12:25;13.90;10.90
23053;DHT22;11694;-36.632;-64.318;2022-10-16T02:14:53;13.90;11.20
23053;DHT22;11694;-36.632;-64.318;2022-10-16T02:17:21;13.80;15.60
23053;DHT22;11694;-36.632;-64.318;2022-10-16T02:19:51;13.80;24.70
23053;DHT22;11694;-36.632;-64.318;2022-10-16T02:22:33;13.70;26.50
23053;DHT22;11694;-36.632;-64.318;2022-10-16T02:27:58;13.70;34.40
23053;DHT22;11694;-36.632;-64.318;2022-10-16T02:30:32;13.60;39.90
23053;DHT22;11694;-36.632;-64.318;2022-10-16T02:33:01;13.50;38.20
23053;DHT22;11694;-36.632;-64.318;2022-10-16T02:35:30;13.40;36.10
23053;DHT22;11694;-36.632;-64.318;2022-10-16T02:38:00;13.40;39.40
23053;DHT22;11694;-36.632;-64.318;2022-10-16T02:40:28;13.40;37.80
23053;DHT22;11694;-36.632;-64.318;2022-10-16T02:42:56;13.30;35.40
23053;DHT22;11694;-36.632;-64.318;2022-10-16T02:45:43;13.30;40.70
23053;DHT22;11694;-36.632;-64.318;2022-10-16T02:48:11;13.30;36.00
23053;DHT22;11694;-36.632;-64.318;2022-10-16T02:50:38;13.30;36.20
23053;DHT22;11694;-36.632;-64.318;2022-10-16T02:53:07;13.10;42.90
23053;DHT22;11694;-36.632;-64.318;2022-10-16T02:55:39;13.10;48.70
23053;DHT22;11694;-36.632;-64.318;2022-10-16T02:58:12;13.10;55.20
23053;DHT22;11694;-36.632;-64.318;2022-10-16T03:00:44;13.00;61.80
23053;DHT22;11694;-36.632;-64.318;2022-10-16T03:03:16;12.90;68.00
23053;DHT22;11694;-36.632;-64.318;2022-10-16T03:05:48;12.90;69.50
23053;DHT22;11694;-36.632;-64.318;2022-10-16T03:08:20;12.80;65.00
23053;DHT22;11694;-36.632;-64.318;2022-10-16T03:10:54;12.70;59.70
23053;DHT22;11694;-36.632;-64.318;2022-10-16T03:13:26;12.70;61.20
23053;DHT22;11694;-36.632;-64.318;2022-10-16T03:15:57;12.60;62.30
23053;DHT22;11694;-36.632;-64.318;2022-10-16T03:18:29;12.60;66.60
23053;DHT22;11694;-36.632;-64.318;2022-10-16T03:21:01;12.40;71.30
23053;DHT22;11694;-36.632;-64.318;2022-10-16T03:23:35;12.40;76.00
23053;DHT22;11694;-36.632;-64.318;2022-10-16T03:26:07;12.30;83.90
23053;DHT22;11694;-36.632;-64.318;2022-10-16T03:28:38;12.40;92.40
23053;DHT22;11694;-36.632;-64.318;2022-10-16T03:31:10;12.40;94.20
23053;DHT22;11694;-36.632;-64.318;2022-10-16T03:33:42;12.30;95.30
23053;DHT22;11694;-36.632;-64.318;2022-10-16T03:36:14;12.40;95.50
23053;DHT22;11694;-36.632;-64.318;2022-10-16T03:38:45;12.40;96.40
23053;DHT22;11694;-36.632;-64.318;2022-10-16T03:41:16;12.40;97.80
23053;DHT22;11694;-36.632;-64.318;2022-10-16T03:43:48;12.40;97.10
23053;DHT22;11694;-36.632;-64.318;2022-10-16T03:46:20;12.40;96.50
23053;DHT22;11694;-36.632;-64.318;2022-10-16T03:48:51;12.30;94.80
23053;DHT22;11694;-36.632;-64.318;2022-10-16T03:51:25;12.30;91.40
23053;DHT22;11694;-36.632;-64.318;2022-10-16T03:54:02;12.40;87.40
23053;DHT22;11694;-36.632;-64.318;2022-10-16T03:56:37;12.30;88.90
23053;DHT22;11694;-36.632;-64.318;2022-10-16T03:59:13;12.30;89.60
23053;DHT22;11694;-36.632;-64.318;2022-10-16T04:01:49;12.30;87.00
23053;DHT22;11694;-36.632;-64.318;2022-10-16T04:04:25;12.30;90.30
23053;DHT22;11694;-36.632;-64.318;2022-10-16T04:07:02;12.20;91.40
23053;DHT22;11694;-36.632;-64.318;2022-10-16T04:09:38;12.20;94.20
23053;DHT22;11694;-36.632;-64.318;2022-10-16T04:12:15;12.10;96.30
23053;DHT22;11694;-36.632;-64.318;2022-10-16T04:14:50;12.10;99.10
23053;DHT22;11694;-36.632;-64.318;2022-10-16T04:17:27;12.00;99.90
23053;DHT22;11694;-36.632;-64.318;2022-10-16T04:20:01;11.90;99.90
23053;DHT22;11694;-36.632;-64.318;2022-10-16T04:22:36;11.90;99.90
23053;DHT22;11694;-36.632;-64.318;2022-10-16T04:25:12;11.80;99.90
23053;DHT22;11694;-36.632;-64.318;2022-10-16T04:27:49;11.70;99.90
23053;DHT22;11694;-36.632;-64.318;2022-10-16T04:30:25;11.60;99.90
23053;DHT22;11694;-36.632;-64.318;2022-10-16T04:33:02;11.50;99.90
23053;DHT22;11694;-36.632;-64.318;2022-10-16T04:35:35;11.50;99.90
23053;DHT22;11694;-36.632;-64.318;2022-10-16T04:38:12;11.40;99.90
23053;DHT22;11694;-36.632;-64.318;2022-10-16T04:40:49;11.30;99.90
23053;DHT22;11694;-36.632;-64.318;2022-10-16T04:43:25;11.30;99.90
23053;DHT22;11694;-36.632;-64.318;2022-10-16T04:46:02;11.20;99.90
23053;DHT22;11694;-36.632;-64.318;2022-10-16T04:48:37;11.10;99.90
23053;DHT22;11694;-36.632;-64.318;2022-10-16T04:51:09;11.10;99.90
23053;DHT22;11694;-36.632;-64.318;2022-10-16T04:53:44;11.00;99.90
23053;DHT22;11694;-36.632;-64.318;2022-10-16T04:56:21;11.00;99.90
23053;DHT22;11694;-36.632;-64.318;2022-10-16T04:58:52;10.90;99.90
23053;DHT22;11694;-36.632;-64.318;2022-10-16T05:01:19;11.00;99.90
23053;DHT22;11694;-36.632;-64.318;2022-10-16T05:03:46;10.90;99.90
23053;DHT22;11694;-36.632;-64.318;2022-10-16T05:06:14;10.80;99.90
23053;DHT22;11694;-36.632;-64.318;2022-10-16T05:08:41;10.80;99.90
23053;DHT22;11694;-36.632;-64.318;2022-10-16T05:11:08;10.70;99.90
23053;DHT22;11694;-36.632;-64.318;2022-10-16T05:13:35;10.60;99.90
23053;DHT22;11694;-36.632;-64.318;2022-10-16T05:16:02;10.60;99.90
23053;DHT22;11694;-36.632;-64.318;2022-10-16T05:18:29;10.60;99.90
23053;DHT22;11694;-36.632;-64.318;2022-10-16T05:20:56;10.50;99.90
23053;DHT22;11694;-36.632;-64.318;2022-10-16T05:23:23;10.60;99.90
23053;DHT22;11694;-36.632;-64.318;2022-10-16T05:25:55;10.60;99.90
23053;DHT22;11694;-36.632;-64.318;2022-10-16T05:28:30;10.60;99.90
23053;DHT22;11694;-36.632;-64.318;2022-10-16T05:30:57;10.60;99.90
23053;DHT22;11694;-36.632;-64.318;2022-10-16T05:33:26;10.60;99.90
23053;DHT22;11694;-36.632;-64.318;2022-10-16T05:35:53;10.60;99.90
23053;DHT22;11694;-36.632;-64.318;2022-10-16T05:38:20;10.60;99.90
23053;DHT22;11694;-36.632;-64.318;2022-10-16T05:40:53;10.50;99.90
23053;DHT22;11694;-36.632;-64.318;2022-10-16T05:43:22;10.60;99.90
23053;DHT22;11694;-36.632;-64.318;2022-10-16T05:46:01;10.50;99.90
23053;DHT22;11694;-36.632;-64.318;2022-10-16T05:48:28;10.50;99.90
23053;DHT22;11694;-36.632;-64.318;2022-10-16T05:51:00;10.50;99.90
23053;DHT22;11694;-36.632;-64.318;2022-10-16T05:53:29;10.50;99.90
23053;DHT22;11694;-36.632;-64.318;2022-10-16T05:55:57;10.50;99.90
23053;DHT22;11694;-36.632;-64.318;2022-10-16T05:58:27;10.50;99.90
23053;DHT22;11694;-36.632;-64.318;2022-10-16T06:00:56;10.50;99.90
23053;DHT22;11694;-36.632;-64.318;2022-10-16T06:03:24;10.50;99.90
23053;DHT22;11694;-36.632;-64.318;2022-10-16T06:05:52;10.50;99.90
23053;DHT22;11694;-36.632;-64.318;2022-10-16T06:08:21;10.40;99.90
23053;DHT22;11694;-36.632;-64.318;2022-10-16T06:10:48;10.30;99.90
23053;DHT22;11694;-36.632;-64.318;2022-10-16T06:13:16;10.30;99.90
23053;DHT22;11694;-36.632;-64.318;2022-10-16T06:15:43;10.20;99.90
23053;DHT22;11694;-36.632;-64.318;2022-10-16T06:18:10;10.20;99.90
23053;DHT22;11694;-36.632;-64.318;2022-10-16T06:20:37;10.10;99.90
23053;DHT22;11694;-36.632;-64.318;2022-10-16T06:23:05;10.10;99.90
23053;DHT22;11694;-36.632;-64.318;2022-10-16T06:25:32;10.00;99.90
23053;DHT22;11694;-36.632;-64.318;2022-10-16T06:27:59;9.90;99.90
23053;DHT22;11694;-36.632;-64.318;2022-10-16T06:30:26;9.80;99.90
23053;DHT22;11694;-36.632;-64.318;2022-10-16T06:32:53;9.80;99.90
23053;DHT22;11694;-36.632;-64.318;2022-10-16T06:35:20;9.70;99.90
23053;DHT22;11694;-36.632;-64.318;2022-10-16T06:37:47;9.70;99.90
23053;DHT22;11694;-36.632;-64.318;2022-10-16T06:40:14;9.70;99.90
23053;DHT22;11694;-36.632;-64.318;2022-10-16T06:42:42;9.60;99.90
23053;DHT22;11694;-36.632;-64.318;2022-10-16T06:45:09;9.60;99.90
23053;DHT22;11694;-36.632;-64.318;2022-10-16T06:47:36;9.60;99.90
23053;DHT22;11694;-36.632;-64.318;2022-10-16T06:50:04;9.50;99.90
23053;DHT22;11694;-36.632;-64.318;2022-10-16T06:52:33;9.50;99.90
23053;DHT22;11694;-36.632;-64.318;2022-10-16T06:55:00;9.40;99.90
23053;DHT22;11694;-36.632;-64.318;2022-10-16T06:57:29;9.50;99.90
23053;DHT22;11694;-36.632;-64.318;2022-10-16T06:59:56;9.30;99.90
23053;DHT22;11694;-36.632;-64.318;2022-10-16T07:02:24;9.30;99.90
23053;DHT22;11694;-36.632;-64.318;2022-10-16T07:04:51;9.30;99.90
23053;DHT22;11694;-36.632;-64.318;2022-10-16T07:07:18;9.20;99.90
23053;DHT22;11694;-36.632;-64.318;2022-10-16T07:09:45;9.20;99.90
23053;DHT22;11694;-36.632;-64.318;2022-10-16T07:12:12;9.10;99.90
23053;DHT22;11694;-36.632;-64.318;2022-10-16T07:14:39;9.10;99.90
23053;DHT22;11694;-36.632;-64.318;2022-10-16T07:17:06;9.00;99.90
23053;DHT22;11694;-36.632;-64.318;2022-10-16T07:19:33;9.10;99.90
23053;DHT22;11694;-36.632;-64.318;2022-10-16T07:22:00;9.20;99.90
23053;DHT22;11694;-36.632;-64.318;2022-10-16T07:24:27;9.20;99.90
23053;DHT22;11694;-36.632;-64.318;2022-10-16T07:26:54;9.20;99.90
23053;DHT22;11694;-36.632;-64.318;2022-10-16T07:29:22;9.20;99.90
23053;DHT22;11694;-36.632;-64.318;2022-10-16T07:31:50;9.20;99.90
23053;DHT22;11694;-36.632;-64.318;2022-10-16T07:34:18;9.10;99.90
23053;DHT22;11694;-36.632;-64.318;2022-10-16T07:36:49;9.10;99.90
23053;DHT22;11694;-36.632;-64.318;2022-10-16T07:39:17;9.10;99.90
23053;DHT22;11694;-36.632;-64.318;2022-10-16T07:41:46;9.00;99.90
23053;DHT22;11694;-36.632;-64.318;2022-10-16T07:44:13;8.90;99.90
23053;DHT22;11694;-36.632;-64.318;2022-10-16T07:46:40;8.90;99.90
23053;DHT22;11694;-36.632;-64.318;2022-10-16T07:49:08;8.80;99.90
23053;DHT22;11694;-36.632;-64.318;2022-10-16T07:51:35;8.80;99.90
23053;DHT22;11694;-36.632;-64.318;2022-10-16T07:54:04;8.80;99.90
23053;DHT22;11694;-36.632;-64.318;2022-10-16T07:56:32;8.80;99.90
23053;DHT22;11694;-36.632;-64.318;2022-10-16T07:58:59;8.70;99.90
23053;DHT22;11694;-36.632;-64.318;2022-10-16T08:01:26;8.60;99.90
23053;DHT22;11694;-36.632;-64.318;2022-10-16T08:03:53;8.60;99.90
23053;DHT22;11694;-36.632;-64.318;2022-10-16T08:06:21;8.70;99.90
23053;DHT22;11694;-36.632;-64.318;2022-10-16T08:08:49;8.60;99.90
23053;DHT22;11694;-36.632;-64.318;2022-10-16T08:11:16;8.60;99.90
23053;DHT22;11694;-36.632;-64.318;2022-10-16T08:13:43;8.70;99.90
23053;DHT22;11694;-36.632;-64.318;2022-10-16T08:16:11;8.70;99.90
23053;DHT22;11694;-36.632;-64.318;2022-10-16T08:18:39;8.70;99.90
23053;DHT22;11694;-36.632;-64.318;2022-10-16T08:21:11;8.70;99.90
23053;DHT22;11694;-36.632;-64.318;2022-10-16T08:23:39;8.60;99.90
23053;DHT22;11694;-36.632;-64.318;2022-10-16T08:26:07;8.60;99.90
23053;DHT22;11694;-36.632;-64.318;2022-10-16T08:28:35;8.60;99.90
23053;DHT22;11694;-36.632;-64.318;2022-10-16T08:31:13;8.60;99.90
23053;DHT22;11694;-36.632;-64.318;2022-10-16T08:33:42;8.50;99.90
23053;DHT22;11694;-36.632;-64.318;2022-10-16T08:36:10;8.50;99.90
23053;DHT22;11694;-36.632;-64.318;2022-10-16T08:38:38;8.50;99.90
23053;DHT22;11694;-36.632;-64.318;2022-10-16T08:44:19;8.50;99.90
23053;DHT22;11694;-36.632;-64.318;2022-10-16T08:49:18;8.40;99.90
23053;DHT22;11694;-36.632;-64.318;2022-10-16T08:51:46;8.40;99.90
23053;DHT22;11694;-36.632;-64.318;2022-10-16T08:54:41;8.40;99.90
23053;DHT22;11694;-36.632;-64.318;2022-10-16T08:57:21;8.40;99.90
23053;DHT22;11694;-36.632;-64.318;2022-10-16T08:59:48;8.40;99.90
23053;DHT22;11694;-36.632;-64.318;2022-10-16T09:08:46;8.30;99.90
23053;DHT22;11694;-36.632;-64.318;2022-10-16T09:14:15;8.30;99.90
23053;DHT22;11694;-36.632;-64.318;2022-10-16T09:16:52;8.30;99.90
23053;DHT22;11694;-36.632;-64.318;2022-10-16T09:19:30;8.20;99.90
23053;DHT22;11694;-36.632;-64.318;2022-10-16T09:22:08;8.20;99.90
23053;DHT22;11694;-36.632;-64.318;2022-10-16T09:24:36;8.30;99.90
23053;DHT22;11694;-36.632;-64.318;2022-10-16T09:27:04;8.30;99.90
23053;DHT22;11694;-36.632;-64.318;2022-10-16T09:29:31;8.20;99.90
23053;DHT22;11694;-36.632;-64.318;2022-10-16T09:32:12;8.20;99.90
23053;DHT22;11694;-36.632;-64.318;2022-10-16T09:34:43;8.20;99.90
23053;DHT22;11694;-36.632;-64.318;2022-10-16T09:37:18;8.10;99.90
23053;DHT22;11694;-36.632;-64.318;2022-10-16T09:39:50;8.10;99.90
23053;DHT22;11694;-36.632;-64.318;2022-10-16T09:42:31;8.10;99.90
23053;DHT22;11694;-36.632;-64.318;2022-10-16T09:44:59;8.20;99.90
23053;DHT22;11694;-36.632;-64.318;2022-10-16T09:47:31;8.20;99.90
23053;DHT22;11694;-36.632;-64.318;2022-10-16T09:50:00;8.20;99.90
23053;DHT22;11694;-36.632;-64.318;2022-10-16T09:52:33;8.20;99.90
23053;DHT22;11694;-36.632;-64.318;2022-10-16T09:55:09;8.20;99.90
23053;DHT22;11694;-36.632;-64.318;2022-10-16T09:57:52;8.30;99.90
23053;DHT22;11694;-36.632;-64.318;2022-10-16T10:00:21;8.40;99.90
23053;DHT22;11694;-36.632;-64.318;2022-10-16T10:02:49;8.30;99.90
23053;DHT22;11694;-36.632;-64.318;2022-10-16T10:05:27;8.40;99.90
23053;DHT22;11694;-36.632;-64.318;2022-10-16T10:07:59;8.30;99.90
23053;DHT22;11694;-36.632;-64.318;2022-10-16T10:10:29;8.40;99.90
23053;DHT22;11694;-36.632;-64.318;2022-10-16T10:12:57;8.50;99.90
23053;DHT22;11694;-36.632;-64.318;2022-10-16T10:15:32;8.50;99.90
23053;DHT22;11694;-36.632;-64.318;2022-10-16T10:18:00;8.50;99.90
23053;DHT22;11694;-36.632;-64.318;2022-10-16T10:20:36;8.60;99.90
23053;DHT22;11694;-36.632;-64.318;2022-10-16T10:23:22;8.60;99.90
23053;DHT22;11694;-36.632;-64.318;2022-10-16T10:25:52;8.70;99.90
23053;DHT22;11694;-36.632;-64.318;2022-10-16T10:28:51;8.80;99.90
23053;DHT22;11694;-36.632;-64.318;2022-10-16T10:31:55;8.80;99.90
23053;DHT22;11694;-36.632;-64.318;2022-10-16T10:37:08;9.00;99.90
23053;DHT22;11694;-36.632;-64.318;2022-10-16T10:39:48;9.10;99.90
23053;DHT22;11694;-36.632;-64.318;2022-10-16T10:45:03;9.20;99.90
23053;DHT22;11694;-36.632;-64.318;2022-10-16T10:56:20;9.70;99.90
23053;DHT22;11694;-36.632;-64.318;2022-10-16T11:04:19;10.10;99.90
23053;DHT22;11694;-36.632;-64.318;2022-10-16T11:06:59;10.50;99.90
23053;DHT22;11694;-36.632;-64.318;2022-10-16T11:09:51;10.70;99.90
23053;DHT22;11694;-36.632;-64.318;2022-10-16T11:12:24;11.10;99.90
23053;DHT22;11694;-36.632;-64.318;2022-10-16T11:15:14;11.40;99.90
23053;DHT22;11694;-36.632;-64.318;2022-10-16T11:20:52;11.90;99.90
23053;DHT22;11694;-36.632;-64.318;2022-10-16T11:26:16;12.60;99.90
23053;DHT22;11694;-36.632;-64.318;2022-10-16T11:28:55;12.70;99.90
23053;DHT22;11694;-36.632;-64.318;2022-10-16T11:31:45;12.90;99.90
23053;DHT22;11694;-36.632;-64.318;2022-10-16T11:34:34;13.00;99.90
23053;DHT22;11694;-36.632;-64.318;2022-10-16T11:37:12;13.00;99.90
23053;DHT22;11694;-36.632;-64.318;2022-10-16T11:39:42;12.90;99.90
23053;DHT22;11694;-36.632;-64.318;2022-10-16T11:42:18;12.90;99.90
23053;DHT22;11694;-36.632;-64.318;2022-10-16T11:47:31;12.90;99.90
23053;DHT22;11694;-36.632;-64.318;2022-10-16T11:50:05;13.00;99.90
23053;DHT22;11694;-36.632;-64.318;2022-10-16T11:55:26;13.30;99.90
23053;DHT22;11694;-36.632;-64.318;2022-10-16T11:58:06;13.50;99.90
23053;DHT22;11694;-36.632;-64.318;2022-10-16T12:00:47;13.70;99.90
23053;DHT22;11694;-36.632;-64.318;2022-10-16T12:09:01;14.20;99.90
23053;DHT22;11694;-36.632;-64.318;2022-10-16T12:14:19;14.90;99.90
23053;DHT22;11694;-36.632;-64.318;2022-10-16T12:20:53;16.50;99.90
23053;DHT22;11694;-36.632;-64.318;2022-10-16T12:22:55;17.00;99.90
23053;DHT22;11694;-36.632;-64.318;2022-10-16T12:28:05;17.70;99.90
23053;DHT22;11694;-36.632;-64.318;2022-10-16T12:30:35;18.10;99.90
23053;DHT22;11694;-36.632;-64.318;2022-10-16T12:33:39;18.30;99.90
23053;DHT22;11694;-36.632;-64.318;2022-10-16T12:36:29;18.50;99.90
23053;DHT22;11694;-36.632;-64.318;2022-10-16T12:38:57;18.70;99.90
23053;DHT22;11694;-36.632;-64.318;2022-10-16T12:41:29;19.00;95.20
23053;DHT22;11694;-36.632;-64.318;2022-10-16T12:43:58;19.30;95.30
23053;DHT22;11694;-36.632;-64.318;2022-10-16T12:51:56;20.10;75.30
23053;DHT22;11694;-36.632;-64.318;2022-10-16T12:54:41;20.70;55.10
23053;DHT22;11694;-36.632;-64.318;2022-10-16T13:00:35;21.70;27.60
23053;DHT22;11694;-36.632;-64.318;2022-10-16T13:17:27;22.20;1.00
23053;DHT22;11694;-36.632;-64.318;2022-10-16T13:21:04;22.50;1.00
23053;DHT22;11694;-36.632;-64.318;2022-10-16T13:28:08;22.70;1.00
23053;DHT22;11694;-36.632;-64.318;2022-10-16T13:30:45;22.80;1.00
23053;DHT22;11694;-36.632;-64.318;2022-10-16T13:33:25;23.00;1.00
23053;DHT22;11694;-36.632;-64.318;2022-10-16T13:35:57;23.20;1.00
23053;DHT22;11694;-36.632;-64.318;2022-10-16T13:38:31;23.00;99.90
23053;DHT22;11694;-36.632;-64.318;2022-10-16T13:41:11;23.00;1.00
23053;DHT22;11694;-36.632;-64.318;2022-10-16T13:43:53;23.00;1.00
23053;DHT22;11694;-36.632;-64.318;2022-10-16T13:46:24;23.10;99.90
23053;DHT22;11694;-36.632;-64.318;2022-10-16T13:49:02;23.20;1.00
23053;DHT22;11694;-36.632;-64.318;2022-10-16T13:51:31;23.00;99.90
23053;DHT22;11694;-36.632;-64.318;2022-10-16T13:53:59;22.90;99.90
23053;DHT22;11694;-36.632;-64.318;2022-10-16T13:56:30;23.00;99.90
23053;DHT22;11694;-36.632;-64.318;2022-10-16T13:59:05;23.10;99.90
23053;DHT22;11694;-36.632;-64.318;2022-10-16T14:01:33;23.10;99.90
23053;DHT22;11694;-36.632;-64.318;2022-10-16T14:04:19;23.40;99.90
23053;DHT22;11694;-36.632;-64.318;2022-10-16T14:06:50;23.50;99.90
23053;DHT22;11694;-36.632;-64.318;2022-10-16T14:12:00;23.70;99.90
23053;DHT22;11694;-36.632;-64.318;2022-10-16T14:14:35;23.60;99.90
23053;DHT22;11694;-36.632;-64.318;2022-10-16T14:17:06;23.70;99.90
23053;DHT22;11694;-36.632;-64.318;2022-10-16T14:19:33;23.90;99.90
23053;DHT22;11694;-36.632;-64.318;2022-10-16T14:22:02;24.00;99.90
23053;DHT22;11694;-36.632;-64.318;2022-10-16T14:24:33;24.10;99.90
23053;DHT22;11694;-36.632;-64.318;2022-10-16T14:27:01;24.30;99.90
23053;DHT22;11694;-36.632;-64.318;2022-10-16T14:29:30;24.50;99.90
23053;DHT22;11694;-36.632;-64.318;2022-10-16T14:32:04;24.40;99.90
23053;DHT22;11694;-36.632;-64.318;2022-10-16T14:34:36;24.30;99.90
23053;DHT22;11694;-36.632;-64.318;2022-10-16T14:37:14;24.20;99.90
23053;DHT22;11694;-36.632;-64.318;2022-10-16T14:39:42;24.30;99.90
23053;DHT22;11694;-36.632;-64.318;2022-10-16T14:42:17;24.20;99.90
23053;DHT22;11694;-36.632;-64.318;2022-10-16T14:44:46;24.40;99.90
23053;DHT22;11694;-36.632;-64.318;2022-10-16T14:47:18;24.50;99.90
23053;DHT22;11694;-36.632;-64.318;2022-10-16T14:49:52;24.60;99.90
23053;DHT22;11694;-36.632;-64.318;2022-10-16T14:52:21;24.60;99.90
23053;DHT22;11694;-36.632;-64.318;2022-10-16T14:54:49;24.70;99.90
23053;DHT22;11694;-36.632;-64.318;2022-10-16T14:57:22;25.00;99.90
23053;DHT22;11694;-36.632;-64.318;2022-10-16T14:59:50;25.00;99.90
23053;DHT22;11694;-36.632;-64.318;2022-10-16T15:02:34;25.20;99.90
23053;DHT22;11694;-36.632;-64.318;2022-10-16T15:07:42;25.70;99.90
23053;DHT22;11694;-36.632;-64.318;2022-10-16T15:10:09;25.70;99.90
23053;DHT22;11694;-36.632;-64.318;2022-10-16T15:12:36;25.50;99.90
23053;DHT22;11694;-36.632;-64.318;2022-10-16T15:15:30;25.60;99.90
23053;DHT22;11694;-36.632;-64.318;2022-10-16T15:17:59;25.40;99.90
23053;DHT22;11694;-36.632;-64.318;2022-10-16T15:20:29;25.50;99.90
23053;DHT22;11694;-36.632;-64.318;2022-10-16T15:22:57;25.60;99.90
23053;DHT22;11694;-36.632;-64.318;2022-10-16T15:25:29;25.50;99.90
23053;DHT22;11694;-36.632;-64.318;2022-10-16T15:27:58;25.50;99.90
23053;DHT22;11694;-36.632;-64.318;2022-10-16T15:30:25;25.40;99.90
23053;DHT22;11694;-36.632;-64.318;2022-10-16T15:32:53;25.40;99.90
23053;DHT22;11694;-36.632;-64.318;2022-10-16T15:35:20;25.50;99.90
23053;DHT22;11694;-36.632;-64.318;2022-10-16T15:37:48;25.50;99.90
23053;DHT22;11694;-36.632;-64.318;2022-10-16T15:40:16;25.30;99.90
23053;DHT22;11694;-36.632;-64.318;2022-10-16T15:42:44;25.30;99.90
23053;DHT22;11694;-36.632;-64.318;2022-10-16T15:45:12;25.50;99.90
23053;DHT22;11694;-36.632;-64.318;2022-10-16T15:47:41;25.60;99.90
23053;DHT22;11694;-36.632;-64.318;2022-10-16T15:50:13;25.30;99.90
23053;DHT22;11694;-36.632;-64.318;2022-10-16T15:52:42;25.20;99.90
23053;DHT22;11694;-36.632;-64.318;2022-10-16T15:55:11;25.00;99.90
23053;DHT22;11694;-36.632;-64.318;2022-10-16T15:57:38;25.30;99.90
23053;DHT22;11694;-36.632;-64.318;2022-10-16T16:00:08;25.50;99.90
23053;DHT22;11694;-36.632;-64.318;2022-10-16T16:02:37;25.70;99.90
23053;DHT22;11694;-36.632;-64.318;2022-10-16T16:05:04;25.80;99.90
23053;DHT22;11694;-36.632;-64.318;2022-10-16T16:07:39;25.70;99.90
23053;DHT22;11694;-36.632;-64.318;2022-10-16T16:10:09;25.50;99.90
23053;DHT22;11694;-36.632;-64.318;2022-10-16T16:12:37;25.60;99.90
23053;DHT22;11694;-36.632;-64.318;2022-10-16T16:15:08;25.60;99.90
23053;DHT22;11694;-36.632;-64.318;2022-10-16T16:17:36;25.30;99.90
23053;DHT22;11694;-36.632;-64.318;2022-10-16T16:20:05;25.20;99.90
23053;DHT22;11694;-36.632;-64.318;2022-10-16T16:22:33;25.30;99.90
23053;DHT22;11694;-36.632;-64.318;2022-10-16T16:25:00;25.70;99.90
23053;DHT22;11694;-36.632;-64.318;2022-10-16T16:27:28;25.40;99.90
23053;DHT22;11694;-36.632;-64.318;2022-10-16T16:29:56;25.60;99.90
23053;DHT22;11694;-36.632;-64.318;2022-10-16T16:32:23;25.70;99.90
23053;DHT22;11694;-36.632;-64.318;2022-10-16T16:34:51;25.90;99.90
23053;DHT22;11694;-36.632;-64.318;2022-10-16T16:37:21;25.60;99.90
23053;DHT22;11694;-36.632;-64.318;2022-10-16T16:39:48;25.40;99.90
23053;DHT22;11694;-36.632;-64.318;2022-10-16T16:42:16;25.30;99.90
23053;DHT22;11694;-36.632;-64.318;2022-10-16T16:44:45;25.30;99.90
23053;DHT22;11694;-36.632;-64.318;2022-10-16T16:47:14;25.40;99.90
23053;DHT22;11694;-36.632;-64.318;2022-10-16T16:49:41;25.60;99.90
23053;DHT22;11694;-36.632;-64.318;2022-10-16T16:52:08;25.60;99.90
23053;DHT22;11694;-36.632;-64.318;2022-10-16T16:54:35;25.60;99.90
23053;DHT22;11694;-36.632;-64.318;2022-10-16T16:57:02;25.80;99.90
23053;DHT22;11694;-36.632;-64.318;2022-10-16T16:59:30;25.70;99.90
23053;DHT22;11694;-36.632;-64.318;2022-10-16T17:02:02;25.40;99.90
23053;DHT22;11694;-36.632;-64.318;2022-10-16T17:04:30;25.50;99.90
23053;DHT22;11694;-36.632;-64.318;2022-10-16T17:06:57;25.90;99.90
23053;DHT22;11694;-36.632;-64.318;2022-10-16T17:09:24;25.90;99.90
23053;DHT22;11694;-36.632;-64.318;2022-10-16T17:11:51;26.10;99.90
23053;DHT22;11694;-36.632;-64.318;2022-10-16T17:14:18;25.90;99.90